sensor_id;sensor_type;location;lat;lon;timestamp;pressure;altitude;pressure_sealevel;temperature;humidity
22930;BME280;11630;42.660;23.292;2024-01-10T00:01:16;67247.44;;;-2.74;100.00
22930;BME280;11630;42.660;23.292;2024-01-10T00:03:47;67287.73;;;-2.34;100.00
22930;BME280;11630;42.660;23.292;2024-01-10T00:06:18;67301.90;;;-2.28;100.00
22930;BME280;11630;42.660;23.292;2024-01-10T00:08:49;67340.06;;;-1.92;100.00
22930;BME280;11630;42.660;23.292;2024-01-10T00:11:20;67347.87;;;-1.84;100.00
22930;BME280;11630;42.660;23.292;2024-01-10T00:13:51;67348.95;;;-1.83;100.00
22930;BME280;11630;42.660;23.292;2024-01-10T00:16:22;67380.67;;;-1.53;100.00
22930;BME280;11630;42.660;23.292;2024-01-10T00:18:52;67330.45;;;-1.96;100.00
22930;BME280;11630;42.660;23.292;2024-01-10T00:21:23;67358.34;;;-1.75;100.00
22930;BME280;11630;42.660;23.292;2024-01-10T00:23:54;67362.64;;;-1.71;98.16
22930;BME280;11630;42.660;23.292;2024-01-10T00:26:25;67369.97;;;-1.58;96.81
22930;BME280;11630;42.660;23.292;2024-01-10T00:28:56;67339.06;;;-1.88;98.06
22930;BME280;11630;42.660;23.292;2024-01-10T00:31:27;67286.33;;;-2.42;99.99
22930;BME280;11630;42.660;23.292;2024-01-10T00:33:58;67306.73;;;-2.23;100.00
22930;BME280;11630;42.660;23.292;2024-01-10T00:36:29;67285.25;;;-2.43;100.00
22930;BME280;11630;42.660;23.292;2024-01-10T00:39:00;67291.22;;;-2.32;100.00
22930;BME280;11630;42.660;23.292;2024-01-10T00:41:30;67307.34;;;-2.18;100.00
22930;BME280;11630;42.660;23.292;2024-01-10T00:44:00;67359.98;;;-1.71;99.87
22930;BME280;11630;42.660;23.292;2024-01-10T00:46:30;67349.24;;;-1.81;98.84
22930;BME280;11630;42.660;23.292;2024-01-10T00:49:00;67363.72;;;-1.70;99.44
22930;BME280;11630;42.660;23.292;2024-01-10T00:51:30;67349.75;;;-1.83;97.63
22930;BME280;11630;42.660;23.292;2024-01-10T00:54:01;67378.02;;;-1.53;95.06
22930;BME280;11630;42.660;23.292;2024-01-10T00:56:32;67360.78;;;-1.72;95.05
22930;BME280;11630;42.660;23.292;2024-01-10T00:59:02;67351.92;;;-1.79;95.97
22930;BME280;11630;42.660;23.292;2024-01-10T01:01:33;67363.24;;;-1.66;95.57
22930;BME280;11630;42.660;23.292;2024-01-10T01:04:04;67379.34;;;-1.53;96.99
22930;BME280;11630;42.660;23.292;2024-01-10T01:06:35;67386.05;;;-1.49;96.72
22930;BME280;11630;42.660;23.292;2024-01-10T01:09:06;67355.94;;;-1.76;96.69
22930;BME280;11630;42.660;23.292;2024-01-10T01:11:37;67363.47;;;-1.69;97.17
22930;BME280;11630;42.660;23.292;2024-01-10T01:14:08;67350.08;;;-1.77;98.87
22930;BME280;11630;42.660;23.292;2024-01-10T01:16:38;67289.84;;;-2.37;100.00
22930;BME280;11630;42.660;23.292;2024-01-10T01:19:09;67255.98;;;-2.69;100.00
22930;BME280;11630;42.660;23.292;2024-01-10T01:21:40;67269.38;;;-2.59;100.00
22930;BME280;11630;42.660;23.292;2024-01-10T01:24:11;67288.21;;;-2.39;100.00
22930;BME280;11630;42.660;23.292;2024-01-10T01:26:41;67274.50;;;-2.53;100.00
22930;BME280;11630;42.660;23.292;2024-01-10T01:29:11;67252.98;;;-2.75;100.00
22930;BME280;11630;42.660;23.292;2024-01-10T01:31:42;67238.23;;;-2.88;100.00
22930;BME280;11630;42.660;23.292;2024-01-10T01:34:13;67238.29;;;-2.83;100.00
22930;BME280;11630;42.660;23.292;2024-01-10T01:36:45;67219.25;;;-2.99;100.00
22930;BME280;11630;42.660;23.292;2024-01-10T01:39:22;67234.50;;;-2.89;100.00
22930;BME280;11630;42.660;23.292;2024-01-10T01:41:51;67235.05;;;-2.88;100.00
22930;BME280;11630;42.660;23.292;2024-01-10T01:44:22;67245.25;;;-2.79;100.00
22930;BME280;11630;42.660;23.292;2024-01-10T01:46:53;67230.22;;;-2.93;100.00
22930;BME280;11630;42.660;23.292;2024-01-10T01:49:24;67236.66;;;-2.87;100.00
22930;BME280;11630;42.660;23.292;2024-01-10T01:51:55;67234.75;;;-2.90;100.00
22930;BME280;11630;42.660;23.292;2024-01-10T01:54:27;67233.42;;;-2.90;100.00
22930;BME280;11630;42.660;23.292;2024-01-10T01:56:58;67244.17;;;-2.80;100.00
22930;BME280;11630;42.660;23.292;2024-01-10T01:59:29;67231.02;;;-2.91;100.00
22930;BME280;11630;42.660;23.292;2024-01-10T02:02:02;67228.06;;;-2.95;100.00
22930;BME280;11630;42.660;23.292;2024-01-10T02:04:32;67239.06;;;-2.86;100.00
22930;BME280;11630;42.660;23.292;2024-01-10T02:07:04;67234.50;;;-2.89;100.00
22930;BME280;11630;42.660;23.292;2024-01-10T02:09:34;67244.75;;;-2.77;100.00
22930;BME280;11630;42.660;23.292;2024-01-10T02:12:05;67254.66;;;-2.69;100.00
22930;BME280;11630;42.660;23.292;2024-01-10T02:14:36;67231.07;;;-2.88;100.00
22930;BME280;11630;42.660;23.292;2024-01-10T02:17:08;67235.33;;;-2.87;100.00
22930;BME280;11630;42.660;23.292;2024-01-10T02:19:38;67210.09;;;-3.10;100.00
22930;BME280;11630;42.660;23.292;2024-01-10T02:22:09;67222.70;;;-3.00;100.00
22930;BME280;11630;42.660;23.292;2024-01-10T02:24:40;67215.44;;;-3.07;100.00
22930;BME280;11630;42.660;23.292;2024-01-10T02:27:12;67212.26;;;-3.06;100.00
22930;BME280;11630;42.660;23.292;2024-01-10T02:29:43;67206.84;;;-3.15;100.00
22930;BME280;11630;42.660;23.292;2024-01-10T02:32:14;67231.77;;;-2.96;100.00
22930;BME280;11630;42.660;23.292;2024-01-10T02:34:45;67222.13;;;-3.03;100.00
22930;BME280;11630;42.660;23.292;2024-01-10T02:37:16;67251.66;;;-2.75;100.00
22930;BME280;11630;42.660;23.292;2024-01-10T02:39:47;67237.73;;;-2.86;100.00
22930;BME280;11630;42.660;23.292;2024-01-10T02:42:18;67249.54;;;-2.75;100.00
22930;BME280;11630;42.660;23.292;2024-01-10T02:44:48;67262.69;;;-2.64;100.00
22930;BME280;11630;42.660;23.292;2024-01-10T02:47:19;67257.05;;;-2.68;100.00
22930;BME280;11630;42.660;23.292;2024-01-10T02:49:49;67252.77;;;-2.72;100.00
22930;BME280;11630;42.660;23.292;2024-01-10T02:52:19;67247.13;;;-2.76;100.00
22930;BME280;11630;42.660;23.292;2024-01-10T02:54:50;67229.42;;;-2.92;100.00
22930;BME280;11630;42.660;23.292;2024-01-10T02:57:21;67225.66;;;-2.96;100.00
22930;BME280;11630;42.660;23.292;2024-01-10T02:59:52;67208.22;;;-3.10;100.00
22930;BME280;11630;42.660;23.292;2024-01-10T03:02:22;67206.84;;;-3.15;100.00
22930;BME280;11630;42.660;23.292;2024-01-10T03:04:54;67211.95;;;-3.09;100.00
22930;BME280;11630;42.660;23.292;2024-01-10T03:07:24;67218.67;;;-3.02;100.00
22930;BME280;11630;42.660;23.292;2024-01-10T03:09:55;67207.92;;;-3.14;100.00
22930;BME280;11630;42.660;23.292;2024-01-10T03:12:26;67206.84;;;-3.15;100.00
22930;BME280;11630;42.660;23.292;2024-01-10T03:14:56;67213.89;;;-3.04;100.00
22930;BME280;11630;42.660;23.292;2024-01-10T03:17:27;67168.97;;;-3.52;100.00
22930;BME280;11630;42.660;23.292;2024-01-10T03:19:58;67184.30;;;-3.36;100.00
22930;BME280;11630;42.660;23.292;2024-01-10T03:22:29;67169.00;;;-3.49;100.00
22930;BME280;11630;42.660;23.292;2024-01-10T03:25:00;67166.63;;;-3.50;100.00
22930;BME280;11630;42.660;23.292;2024-01-10T03:27:31;67187.83;;;-3.29;100.00
22930;BME280;11630;42.660;23.292;2024-01-10T03:30:02;67193.45;;;-3.25;100.00
22930;BME280;11630;42.660;23.292;2024-01-10T03:32:33;67215.46;;;-3.05;100.00
22930;BME280;11630;42.660;23.292;2024-01-10T03:35:05;67224.58;;;-2.97;100.00
22930;BME280;11630;42.660;23.292;2024-01-10T03:37:36;67242.27;;;-2.83;100.00
22930;BME280;11630;42.660;23.292;2024-01-10T03:40:08;67243.92;;;-2.79;100.00
22930;BME280;11630;42.660;23.292;2024-01-10T03:42:39;67215.44;;;-3.07;100.00
22930;BME280;11630;42.660;23.292;2024-01-10T03:45:10;67222.95;;;-3.01;100.00
22930;BME280;11630;42.660;23.292;2024-01-10T03:47:41;67238.54;;;-2.84;100.00
22930;BME280;11630;42.660;23.292;2024-01-10T03:50:12;67209.30;;;-3.09;100.00
22930;BME280;11630;42.660;23.292;2024-01-10T03:52:43;67223.50;;;-2.98;100.00
22930;BME280;11630;42.660;23.292;2024-01-10T03:55:14;67239.34;;;-2.84;100.00
22930;BME280;11630;42.660;23.292;2024-01-10T03:57:44;67226.45;;;-2.96;100.00
22930;BME280;11630;42.660;23.292;2024-01-10T04:00:16;67221.91;;;-2.99;100.00
22930;BME280;11630;42.660;23.292;2024-01-10T04:02:47;67231.55;;;-2.93;100.00
22930;BME280;11630;42.660;23.292;2024-01-10T04:05:17;67228.06;;;-2.95;99.99
22930;BME280;11630;42.660;23.292;2024-01-10T04:07:48;67218.64;;;-3.05;100.00
22930;BME280;11630;42.660;23.292;2024-01-10T04:10:19;67232.34;;;-2.91;100.00
22930;BME280;11630;42.660;23.292;2024-01-10T04:12:50;67210.34;;;-3.11;100.00
22930;BME280;11630;42.660;23.292;2024-01-10T04:15:21;67237.98;;;-2.87;100.00
22930;BME280;11630;42.660;23.292;2024-01-10T04:17:52;67236.69;;;-2.84;98.86
22930;BME280;11630;42.660;23.292;2024-01-10T04:20:23;67232.88;;;-2.93;96.84
22930;BME280;11630;42.660;23.292;2024-01-10T04:22:53;67227.73;;;-2.99;96.69
22930;BME280;11630;42.660;23.292;2024-01-10T04:25:24;67228.89;;;-2.93;97.21
22930;BME280;11630;42.660;23.292;2024-01-10T04:27:55;67220.55;;;-3.02;96.81
22930;BME280;11630;42.660;23.292;2024-01-10T04:30:25;67221.33;;;-3.02;96.87
22930;BME280;11630;42.660;23.292;2024-01-10T04:32:56;67220.83;;;-3.00;96.63
22930;BME280;11630;42.660;23.292;2024-01-10T04:35:27;67202.06;;;-3.15;97.88
22930;BME280;11630;42.660;23.292;2024-01-10T04:37:59;67210.63;;;-3.09;96.91
22930;BME280;11630;42.660;23.292;2024-01-10T04:40:29;67202.86;;;-3.15;95.10
22930;BME280;11630;42.660;23.292;2024-01-10T04:43:00;67202.28;;;-3.18;94.91
22930;BME280;11630;42.660;23.292;2024-01-10T04:45:31;67214.11;;;-3.07;96.77
22930;BME280;11630;42.660;23.292;2024-01-10T04:48:02;67222.70;;;-3.00;96.29
22930;BME280;11630;42.660;23.292;2024-01-10T04:50:34;67215.98;;;-3.05;95.78
22930;BME280;11630;42.660;23.292;2024-01-10T04:53:05;67212.48;;;-3.09;97.47
22930;BME280;11630;42.660;23.292;2024-01-10T04:55:35;67208.72;;;-3.12;95.51
22930;BME280;11630;42.660;23.292;2024-01-10T04:58:06;67213.28;;;-3.09;94.98
22930;BME280;11630;42.660;23.292;2024-01-10T05:00:37;67216.23;;;-3.06;94.58
22930;BME280;11630;42.660;23.292;2024-01-10T05:03:08;67241.74;;;-2.83;94.26
22930;BME280;11630;42.660;23.292;2024-01-10T05:05:39;67247.13;;;-2.76;93.81
22930;BME280;11630;42.660;23.292;2024-01-10T05:08:10;67236.66;;;-2.87;90.98
22930;BME280;11630;42.660;23.292;2024-01-10T05:10:40;67223.50;;;-2.98;90.40
22930;BME280;11630;42.660;23.292;2024-01-10T05:13:12;67220.27;;;-3.03;91.24
22930;BME280;11630;42.660;23.292;2024-01-10T05:15:43;67264.58;;;-2.61;92.65
22930;BME280;11630;42.660;23.292;2024-01-10T05:18:15;67277.23;;;-2.48;91.60
22930;BME280;11630;42.660;23.292;2024-01-10T05:20:46;67267.05;;;-2.55;90.54
22930;BME280;11630;42.660;23.292;2024-01-10T05:23:16;67226.73;;;-2.95;90.40
22930;BME280;11630;42.660;23.292;2024-01-10T05:25:46;67238.52;;;-2.86;90.74
22930;BME280;11630;42.660;23.292;2024-01-10T05:28:17;67259.73;;;-2.65;91.85
22930;BME280;11630;42.660;23.292;2024-01-10T05:30:48;67279.89;;;-2.48;92.16
22930;BME280;11630;42.660;23.292;2024-01-10T05:33:19;67258.70;;;-2.64;92.88
22930;BME280;11630;42.660;23.292;2024-01-10T05:35:49;67273.17;;;-2.53;92.53
22930;BME280;11630;42.660;23.292;2024-01-10T05:38:19;67269.44;;;-2.54;92.72
22930;BME280;11630;42.660;23.292;2024-01-10T05:40:50;67280.44;;;-2.45;92.84
22930;BME280;11630;42.660;23.292;2024-01-10T05:43:21;67270.73;;;-2.56;93.82
22930;BME280;11630;42.660;23.292;2024-01-10T05:45:52;67251.69;;;-2.73;93.74
22930;BME280;11630;42.660;23.292;2024-01-10T05:48:23;67256.55;;;-2.66;94.93
22930;BME280;11630;42.660;23.292;2024-01-10T05:50:54;67269.41;;;-2.56;94.75
22930;BME280;11630;42.660;23.292;2024-01-10T05:53:25;67264.35;;;-2.57;95.78
22930;BME280;11630;42.660;23.292;2024-01-10T05:55:56;67266.76;;;-2.56;95.16
22930;BME280;11630;42.660;23.292;2024-01-10T05:58:27;67274.25;;;-2.52;93.82
22930;BME280;11630;42.660;23.292;2024-01-10T06:00:57;67256.53;;;-2.68;93.37
22930;BME280;11630;42.660;23.292;2024-01-10T06:03:27;67244.42;;;-2.81;94.37
22930;BME280;11630;42.660;23.292;2024-01-10T06:05:58;67250.89;;;-2.72;95.68
22930;BME280;11630;42.660;23.292;2024-01-10T06:08:29;67253.59;;;-2.70;95.88
22930;BME280;11630;42.660;23.292;2024-01-10T06:11:01;67243.89;;;-2.81;94.98
22930;BME280;11630;42.660;23.292;2024-01-10T06:13:31;67260.54;;;-2.66;96.13
22930;BME280;11630;42.660;23.292;2024-01-10T06:16:02;67268.88;;;-2.57;96.78
22930;BME280;11630;42.660;23.292;2024-01-10T06:18:33;67251.69;;;-2.73;95.56
22930;BME280;11630;42.660;23.292;2024-01-10T06:21:03;67259.46;;;-2.67;95.10
22930;BME280;11630;42.660;23.292;2024-01-10T06:23:34;67261.89;;;-2.63;94.77
22930;BME280;11630;42.660;23.292;2024-01-10T06:26:06;67243.38;;;-2.79;95.50
22930;BME280;11630;42.660;23.292;2024-01-10T06:28:37;67237.19;;;-2.86;96.32
22930;BME280;11630;42.660;23.292;2024-01-10T06:31:08;67245.28;;;-2.76;95.48
22930;BME280;11630;42.660;23.292;2024-01-10T06:33:39;67248.98;;;-2.78;94.68
22930;BME280;11630;42.660;23.292;2024-01-10T06:36:10;67251.44;;;-2.72;94.55
22930;BME280;11630;42.660;23.292;2024-01-10T06:38:41;67269.73;;;-2.52;94.38
22930;BME280;11630;42.660;23.292;2024-01-10T06:41:12;67295.73;;;-2.32;93.05
22930;BME280;11630;42.660;23.292;2024-01-10T06:43:48;67299.50;;;-2.29;90.73
22930;BME280;11630;42.660;23.292;2024-01-10T06:46:14;67332.80;;;-2.00;90.69
22930;BME280;11630;42.660;23.292;2024-01-10T06:48:44;67310.52;;;-2.17;91.33
22930;BME280;11630;42.660;23.292;2024-01-10T06:51:19;67345.76;;;-1.83;90.20
22930;BME280;11630;42.660;23.292;2024-01-10T06:53:48;67337.66;;;-1.93;86.67
22930;BME280;11630;42.660;23.292;2024-01-10T06:56:20;67340.89;;;-1.90;86.82
22930;BME280;11630;42.660;23.292;2024-01-10T06:58:51;67326.88;;;-2.06;86.88
22930;BME280;11630;42.660;23.292;2024-01-10T07:01:22;67308.64;;;-2.20;84.90
22930;BME280;11630;42.660;23.292;2024-01-10T07:03:53;67313.76;;;-2.14;83.67
22930;BME280;11630;42.660;23.292;2024-01-10T07:06:23;67303.28;;;-2.25;82.52
22930;BME280;11630;42.660;23.292;2024-01-10T07:08:57;67326.38;;;-2.04;83.41
22930;BME280;11630;42.660;23.292;2024-01-10T07:11:27;67366.18;;;-1.64;83.54
22930;BME280;11630;42.660;23.292;2024-01-10T07:13:58;67350.85;;;-1.80;80.38
22930;BME280;11630;42.660;23.292;2024-01-10T07:16:28;67353.28;;;-1.76;79.49
22930;BME280;11630;42.660;23.292;2024-01-10T07:18:59;67339.84;;;-1.89;77.91
22930;BME280;11630;42.660;23.292;2024-01-10T07:21:31;67313.70;;;-2.19;76.62
22930;BME280;11630;42.660;23.292;2024-01-10T07:24:04;67281.52;;;-2.44;75.20
22930;BME280;11630;42.660;23.292;2024-01-10T07:26:38;67296.31;;;-2.29;76.45
22930;BME280;11630;42.660;23.292;2024-01-10T07:29:11;67282.84;;;-2.44;74.21
22930;BME280;11630;42.660;23.292;2024-01-10T07:31:40;67285.53;;;-2.41;72.34
22930;BME280;11630;42.660;23.292;2024-01-10T07:34:11;67291.19;;;-2.35;72.20
22930;BME280;11630;42.660;23.292;2024-01-10T07:36:44;67315.59;;;-2.16;72.49
22930;BME280;11630;42.660;23.292;2024-01-10T07:39:15;67326.38;;;-2.04;71.60
22930;BME280;11630;42.660;23.292;2024-01-10T07:41:47;67340.64;;;-1.89;70.41
22930;BME280;11630;42.660;23.292;2024-01-10T07:44:23;67311.61;;;-2.16;67.65
22930;BME280;11630;42.660;23.292;2024-01-10T07:46:49;67324.77;;;-2.05;68.07
22930;BME280;11630;42.660;23.292;2024-01-10T07:49:23;67342.19;;;-1.93;68.96
22930;BME280;11630;42.660;23.292;2024-01-10T07:51:53;67334.70;;;-1.97;67.89
22930;BME280;11630;42.660;23.292;2024-01-10T07:54:24;67346.01;;;-1.84;68.29
22930;BME280;11630;42.660;23.292;2024-01-10T07:56:55;67369.09;;;-1.65;69.31
22930;BME280;11630;42.660;23.292;2024-01-10T07:59:25;67427.45;;;-1.10;69.17
22930;BME280;11630;42.660;23.292;2024-01-10T08:02:08;67442.56;;;-0.94;68.26
22930;BME280;11630;42.660;23.292;2024-01-10T08:04:42;67446.58;;;-0.91;66.88
22930;BME280;11630;42.660;23.292;2024-01-10T08:07:09;67425.34;;;-1.10;63.52
22930;BME280;11630;42.660;23.292;2024-01-10T08:09:39;67440.66;;;-0.97;63.84
22930;BME280;11630;42.660;23.292;2024-01-10T08:12:09;67380.95;;;-1.52;61.73
22930;BME280;11630;42.660;23.292;2024-01-10T08:14:41;67382.31;;;-1.50;63.20
22930;BME280;11630;42.660;23.292;2024-01-10T08:17:12;67368.33;;;-1.62;63.77
22930;BME280;11630;42.660;23.292;2024-01-10T08:19:43;67369.14;;;-1.63;63.15
22930;BME280;11630;42.660;23.292;2024-01-10T08:22:14;67401.11;;;-1.35;64.33
22930;BME280;11630;42.660;23.292;2024-01-10T08:24:45;67393.58;;;-1.42;63.53
22930;BME280;11630;42.660;23.292;2024-01-10T08:27:16;67357.84;;;-1.73;63.11
22930;BME280;11630;42.660;23.292;2024-01-10T08:29:46;67365.88;;;-1.68;63.08
22930;BME280;11630;42.660;23.292;2024-01-10T08:32:17;67380.93;;;-1.54;63.79
22930;BME280;11630;42.660;23.292;2024-01-10T08:34:48;67440.38;;;-0.98;62.93
22930;BME280;11630;42.660;23.292;2024-01-10T08:37:19;67523.81;;;-0.21;61.48
22930;BME280;11630;42.660;23.292;2024-01-10T08:39:50;67533.51;;;-0.12;63.30
22930;BME280;11630;42.660;23.292;2024-01-10T08:42:22;67569.05;;;0.20;61.95
22930;BME280;11630;42.660;23.292;2024-01-10T08:44:55;67628.36;;;0.80;60.38
22930;BME280;11630;42.660;23.292;2024-01-10T08:47:29;67603.28;;;0.53;59.47
22930;BME280;11630;42.660;23.292;2024-01-10T08:50:02;67688.45;;;1.34;59.39
22930;BME280;11630;42.660;23.292;2024-01-10T08:52:29;67645.28;;;0.89;59.62
22930;BME280;11630;42.660;23.292;2024-01-10T08:55:00;67710.28;;;1.51;58.87
22930;BME280;11630;42.660;23.292;2024-01-10T08:57:31;67773.13;;;2.10;59.37
22930;BME280;11630;42.660;23.292;2024-01-10T09:00:00;67926.78;;;3.52;57.44
22930;BME280;11630;42.660;23.292;2024-01-10T09:02:32;68009.19;;;4.22;55.34
22930;BME280;11630;42.660;23.292;2024-01-10T09:05:03;67955.41;;;3.76;56.24
22930;BME280;11630;42.660;23.292;2024-01-10T09:07:33;68038.95;;;4.52;53.51
22930;BME280;11630;42.660;23.292;2024-01-10T09:10:04;67870.56;;;2.96;55.98
22930;BME280;11630;42.660;23.292;2024-01-10T09:12:36;67834.91;;;2.63;55.87
22930;BME280;11630;42.660;23.292;2024-01-10T09:15:06;67830.09;;;2.63;55.94
22930;BME280;11630;42.660;23.292;2024-01-10T09:17:37;67820.91;;;2.55;56.30
22930;BME280;11630;42.660;23.292;2024-01-10T09:20:11;67812.55;;;2.46;56.31
22930;BME280;11630;42.660;23.292;2024-01-10T09:22:42;67854.38;;;2.83;56.94
22930;BME280;11630;42.660;23.292;2024-01-10T09:25:14;67996.24;;;4.15;54.24
22930;BME280;11630;42.660;23.292;2024-01-10T09:27:45;68023.52;;;4.36;52.12
22930;BME280;11630;42.660;23.292;2024-01-10T09:30:15;68167.50;;;5.71;51.39
22930;BME280;11630;42.660;23.292;2024-01-10T09:32:50;68126.88;;;5.31;47.96
22930;BME280;11630;42.660;23.292;2024-01-10T09:35:22;67870.30;;;2.97;51.13
22930;BME280;11630;42.660;23.292;2024-01-10T09:37:52;68094.66;;;5.00;50.37
22930;BME280;11630;42.660;23.292;2024-01-10T09:40:23;68148.83;;;5.55;48.10
22930;BME280;11630;42.660;23.292;2024-01-10T09:42:54;68178.89;;;5.81;47.72
22930;BME280;11630;42.660;23.292;2024-01-10T09:45:24;68205.72;;;6.09;47.73
22930;BME280;11630;42.660;23.292;2024-01-10T09:47:59;68204.06;;;6.01;48.37
22930;BME280;11630;42.660;23.292;2024-01-10T09:50:30;68123.61;;;5.28;49.48
22930;BME280;11630;42.660;23.292;2024-01-10T09:53:05;67955.42;;;3.78;51.00
22930;BME280;11630;42.660;23.292;2024-01-10T09:55:37;68001.35;;;4.16;51.42
22930;BME280;11630;42.660;23.292;2024-01-10T09:58:12;67888.11;;;3.10;54.49
22930;BME280;11630;42.660;23.292;2024-01-10T10:00:39;67769.10;;;2.07;56.12
22930;BME280;11630;42.660;23.292;2024-01-10T10:03:12;67722.41;;;1.63;58.79
22930;BME280;11630;42.660;23.292;2024-01-10T10:05:43;67801.98;;;2.32;58.17
22930;BME280;11630;42.660;23.292;2024-01-10T10:08:16;67795.27;;;2.30;57.04
22930;BME280;11630;42.660;23.292;2024-01-10T10:10:50;67787.97;;;2.22;57.66
22930;BME280;11630;42.660;23.292;2024-01-10T10:13:29;67713.25;;;1.54;58.18
22930;BME280;11630;42.660;23.292;2024-01-10T10:16:00;67723.47;;;1.61;60.04
22930;BME280;11630;42.660;23.292;2024-01-10T10:18:32;67818.45;;;2.49;58.75
22930;BME280;11630;42.660;23.292;2024-01-10T10:21:13;67872.19;;;3.00;57.41
22930;BME280;11630;42.660;23.292;2024-01-10T10:24:00;67921.91;;;3.48;55.98
22930;BME280;11630;42.660;23.292;2024-01-10T10:26:33;67938.13;;;3.63;55.74
22930;BME280;11630;42.660;23.292;2024-01-10T10:29:03;67878.12;;;3.03;56.30
22930;BME280;11630;42.660;23.292;2024-01-10T10:31:37;67938.95;;;3.65;55.29
22930;BME280;11630;42.660;23.292;2024-01-10T10:34:08;68034.33;;;4.44;53.85
22930;BME280;11630;42.660;23.292;2024-01-10T10:36:42;68067.89;;;4.79;53.58
22930;BME280;11630;42.660;23.292;2024-01-10T10:39:12;68160.20;;;5.65;51.81
22930;BME280;11630;42.660;23.292;2024-01-10T10:41:43;68084.13;;;4.94;50.57
22930;BME280;11630;42.660;23.292;2024-01-10T10:44:16;68085.47;;;4.94;52.41
22930;BME280;11630;42.660;23.292;2024-01-10T10:46:49;68176.73;;;5.82;50.38
22930;BME280;11630;42.660;23.292;2024-01-10T10:49:20;68255.84;;;6.57;49.01
22930;BME280;11630;42.660;23.292;2024-01-10T10:51:51;68284.28;;;6.79;48.02
22930;BME280;11630;42.660;23.292;2024-01-10T10:54:24;68290.50;;;6.81;48.09
22930;BME280;11630;42.660;23.292;2024-01-10T10:56:57;68273.41;;;6.64;47.99
22930;BME280;11630;42.660;23.292;2024-01-10T10:59:28;68116.58;;;5.19;49.64
22930;BME280;11630;42.660;23.292;2024-01-10T11:02:00;68136.64;;;5.45;51.34
22930;BME280;11630;42.660;23.292;2024-01-10T11:04:30;68100.93;;;5.12;51.02
22930;BME280;11630;42.660;23.292;2024-01-10T11:07:05;68055.73;;;4.69;52.92
22930;BME280;11630;42.660;23.292;2024-01-10T11:09:37;67907.88;;;3.35;54.85
22930;BME280;11630;42.660;23.292;2024-01-10T11:17:51;67946.23;;;3.68;54.73
22930;BME280;11630;42.660;23.292;2024-01-10T11:23:32;67782.36;;;2.23;60.20
22930;BME280;11630;42.660;23.292;2024-01-10T11:25:58;67746.68;;;1.83;61.46
22930;BME280;11630;42.660;23.292;2024-01-10T11:28:31;67774.78;;;2.14;62.23
22930;BME280;11630;42.660;23.292;2024-01-10T11:31:01;67806.88;;;2.42;62.08
22930;BME280;11630;42.660;23.292;2024-01-10T11:33:34;67855.23;;;2.90;60.79
22930;BME280;11630;42.660;23.292;2024-01-10T11:36:17;67801.21;;;2.35;61.26
22930;BME280;11630;42.660;23.292;2024-01-10T11:38:57;67803.66;;;2.39;62.94
22930;BME280;11630;42.660;23.292;2024-01-10T11:41:30;67841.69;;;2.73;62.14
22930;BME280;11630;42.660;23.292;2024-01-10T11:46:54;67890.05;;;3.18;60.64
22930;BME280;11630;42.660;23.292;2024-01-10T11:49:25;67873.27;;;3.01;59.66
22930;BME280;11630;42.660;23.292;2024-01-10T11:51:57;67878.12;;;3.03;59.66
22930;BME280;11630;42.660;23.292;2024-01-10T11:54:45;67891.13;;;3.19;60.44
22930;BME280;11630;42.660;23.292;2024-01-10T11:57:23;67893.81;;;3.19;60.88
22930;BME280;11630;42.660;23.292;2024-01-10T11:59:55;67886.52;;;3.14;60.31
22930;BME280;11630;42.660;23.292;2024-01-10T12:02:26;67877.89;;;3.08;59.68
22930;BME280;11630;42.660;23.292;2024-01-10T12:04:57;67857.36;;;2.87;58.53
22930;BME280;11630;42.660;23.292;2024-01-10T12:07:28;67860.28;;;2.84;58.45
22930;BME280;11630;42.660;23.292;2024-01-10T12:09:59;67790.69;;;2.27;60.48
22930;BME280;11630;42.660;23.292;2024-01-10T12:12:30;67751.58;;;1.92;63.36
22930;BME280;11630;42.660;23.292;2024-01-10T12:15:03;67834.96;;;2.68;62.07
22930;BME280;11630;42.660;23.292;2024-01-10T12:17:36;67867.56;;;2.92;61.54
22930;BME280;11630;42.660;23.292;2024-01-10T12:20:09;67810.38;;;2.44;62.39
22930;BME280;11630;42.660;23.292;2024-01-10T12:22:40;67819.30;;;2.53;63.50
22930;BME280;11630;42.660;23.292;2024-01-10T12:25:11;67787.97;;;2.22;63.12
22930;BME280;11630;42.660;23.292;2024-01-10T12:27:42;67821.95;;;2.51;61.62
22930;BME280;11630;42.660;23.292;2024-01-10T12:30:12;67792.28;;;2.26;62.47
22930;BME280;11630;42.660;23.292;2024-01-10T12:32:44;67793.61;;;2.26;63.48
22930;BME280;11630;42.660;23.292;2024-01-10T12:35:15;67779.59;;;2.13;63.28
22930;BME280;11630;42.660;23.292;2024-01-10T12:37:56;67785.55;;;2.21;62.98
22930;BME280;11630;42.660;23.292;2024-01-10T12:40:27;67797.44;;;2.32;62.56
22930;BME280;11630;42.660;23.292;2024-01-10T12:43:07;67814.16;;;2.47;61.85
22930;BME280;11630;42.660;23.292;2024-01-10T12:45:38;67855.98;;;2.85;60.70
22930;BME280;11630;42.660;23.292;2024-01-10T12:48:12;67802.00;;;2.35;61.09
22930;BME280;11630;42.660;23.292;2024-01-10T12:50:41;67765.34;;;2.06;62.11
22930;BME280;11630;42.660;23.292;2024-01-10T12:53:12;67738.58;;;1.75;63.79
22930;BME280;11630;42.660;23.292;2024-01-10T12:55:43;67745.89;;;1.86;61.93
22930;BME280;11630;42.660;23.292;2024-01-10T12:58:14;67792.84;;;2.29;61.97
22930;BME280;11630;42.660;23.292;2024-01-10T13:00:45;67803.34;;;2.35;61.98
22930;BME280;11630;42.660;23.292;2024-01-10T13:03:16;67818.21;;;2.52;61.98
22930;BME280;11630;42.660;23.292;2024-01-10T13:05:46;67813.88;;;2.46;61.58
22930;BME280;11630;42.660;23.292;2024-01-10T13:08:20;67787.48;;;2.27;63.54
22930;BME280;11630;42.660;23.292;2024-01-10T13:10:50;67793.91;;;2.28;61.68
22930;BME280;11630;42.660;23.292;2024-01-10T13:13:20;67826.56;;;2.56;60.53
22930;BME280;11630;42.660;23.292;2024-01-10T13:15:51;67861.14;;;2.91;60.87
22930;BME280;11630;42.660;23.292;2024-01-10T13:18:21;67868.16;;;2.97;59.95
22930;BME280;11630;42.660;23.292;2024-01-10T13:20:52;67811.20;;;2.46;60.31
22930;BME280;11630;42.660;23.292;2024-01-10T13:23:23;67843.03;;;2.73;60.67